Time;durP1;ratioP1;P1;durP2;ratioP2;P2;SDS_P1;SDS_P2;PMS_P1;PMS_P2;Temp;Humidity;BMP_temperature;BMP_pressure;BME280_temperature;BME280_humidity;BME280_pressure;Samples;Min_cycle;Max_cycle;Signal;HPM_P1;HPM_P2
2024/02/12 00:01:45;;;;;;;7.10;2.83;;;7.20;99.90;;;;;;4429347;28;658340;-76
2024/02/12 00:04:33;;;;;;;9.87;5.80;;;7.10;99.90;;;;;;4408990;28;656741;-76
2024/02/12 00:07:20;;;;;;;6.27;4.60;;;7.10;99.90;;;;;;4450430;28;657665;-76
2024/02/12 00:10:10;;;;;;;6.90;5.13;;;7.00;99.90;;;;;;4428496;28;657109;-76
2024/02/12 00:12:58;;;;;;;8.23;5.30;;;6.90;99.90;;;;;;4432370;28;656714;-76
2024/02/12 00:15:46;;;;;;;2.87;1.53;;;6.90;99.90;;;;;;4451022;28;656957;-76
2024/02/12 00:18:34;;;;;;;4.03;3.05;;;7.00;99.90;;;;;;4431755;28;656578;-76
2024/02/12 00:21:21;;;;;;;4.87;3.60;;;6.90;99.90;;;;;;4445581;28;656586;-76
2024/02/12 00:24:09;;;;;;;5.50;3.70;;;6.90;99.90;;;;;;4413961;28;656754;-76
2024/02/12 00:27:00;;;;;;;3.77;2.70;;;6.80;99.90;;;;;;4453823;28;656490;-77
2024/02/12 00:29:48;;;;;;;3.83;3.00;;;6.80;99.90;;;;;;4428087;28;656635;-77
2024/02/12 00:32:37;;;;;;;4.47;2.47;;;6.80;99.90;;;;;;4449485;28;657877;-77
2024/02/12 00:35:25;;;;;;;3.57;2.63;;;6.80;99.90;;;;;;4409785;28;657499;-77
2024/02/12 00:38:13;;;;;;;6.03;3.33;;;6.80;99.90;;;;;;4414227;28;656229;-76
2024/02/12 00:41:00;;;;;;;5.40;3.40;;;6.80;99.90;;;;;;4432206;28;657177;-77
2024/02/12 00:43:47;;;;;;;3.90;3.20;;;6.80;99.90;;;;;;4425230;28;656831;-76
2024/02/12 00:46:35;;;;;;;3.40;1.87;;;6.70;99.90;;;;;;4422442;28;656985;-77
2024/02/12 00:49:25;;;;;;;4.70;2.40;;;6.70;99.90;;;;;;4450650;28;656776;-76
2024/02/12 00:52:14;;;;;;;2.03;1.83;;;6.80;99.90;;;;;;4432209;28;656507;-76
2024/02/12 00:55:01;;;;;;;5.20;3.60;;;6.70;99.90;;;;;;4454706;28;656734;-77
2024/02/12 00:57:48;;;;;;;7.00;2.83;;;6.70;99.90;;;;;;4431576;28;656858;-76
2024/02/12 01:00:36;;;;;;;5.20;3.40;;;6.70;99.90;;;;;;4454801;28;657105;-77
2024/02/12 01:03:23;;;;;;;5.33;3.63;;;6.70;99.90;;;;;;4429991;28;656601;-76
2024/02/12 01:06:12;;;;;;;6.27;4.63;;;6.70;99.90;;;;;;4452205;28;655975;-77
2024/02/12 01:08:59;;;;;;;2.67;1.90;;;6.60;99.90;;;;;;4430580;28;656627;-78
2024/02/12 01:11:47;;;;;;;7.27;3.97;;;6.60;99.90;;;;;;4435877;28;656582;-77
2024/02/12 01:14:34;;;;;;;7.50;4.20;;;6.50;99.90;;;;;;4426753;28;656714;-77
2024/02/12 01:17:22;;;;;;;3.07;1.63;;;6.50;99.90;;;;;;4447155;28;657561;-78
2024/02/12 01:20:11;;;;;;;5.73;4.30;;;6.50;99.90;;;;;;4429395;28;657234;-77
2024/02/12 01:23:00;;;;;;;6.35;4.40;;;6.50;99.90;;;;;;4430429;28;656843;-77
2024/02/12 01:25:50;;;;;;;8.90;4.57;;;6.50;99.90;;;;;;4416902;28;656859;-75
2024/02/12 01:28:37;;;;;;;4.97;3.40;;;6.50;99.90;;;;;;4420475;28;656309;-76
2024/02/12 01:31:25;;;;;;;4.43;3.07;;;6.60;99.90;;;;;;4419649;28;656865;-77
2024/02/12 01:34:13;;;;;;;2.90;2.07;;;6.60;99.90;;;;;;4442030;28;657052;-78
2024/02/12 01:37:00;;;;;;;2.83;1.97;;;6.60;99.90;;;;;;4423475;28;656935;-78
2024/02/12 01:39:49;;;;;;;4.60;2.77;;;6.60;99.90;;;;;;4429443;28;656676;-76
2024/02/12 01:42:37;;;;;;;6.33;3.83;;;6.60;99.90;;;;;;4452898;28;656794;-77
2024/02/12 01:45:26;;;;;;;7.20;1.73;;;6.60;99.90;;;;;;4426003;28;657574;-77
2024/02/12 01:48:14;;;;;;;4.63;2.73;;;6.60;99.90;;;;;;4419408;28;656738;-77
2024/02/12 01:51:06;;;;;;;4.13;2.13;;;6.60;99.90;;;;;;4451208;28;656637;-77
2024/02/12 01:53:53;;;;;;;3.27;2.30;;;6.60;99.90;;;;;;4403641;28;657140;-77
2024/02/12 01:56:42;;;;;;;1.87;1.27;;;6.60;99.90;;;;;;4451083;28;657063;-78
2024/02/12 01:59:30;;;;;;;2.77;1.90;;;6.60;99.90;;;;;;4427764;28;657756;-77
2024/02/12 02:02:17;;;;;;;3.33;1.40;;;6.60;99.90;;;;;;4434505;28;656418;-75
2024/02/12 02:05:06;;;;;;;4.20;2.73;;;6.60;99.90;;;;;;4452652;28;656648;-77
2024/02/12 02:07:53;;;;;;;2.43;2.17;;;6.60;99.90;;;;;;4429289;28;656573;-77
2024/02/12 02:10:40;;;;;;;2.43;1.40;;;6.60;99.90;;;;;;4448276;28;657629;-77
2024/02/12 02:13:29;;;;;;;2.93;2.10;;;6.60;99.90;;;;;;4429651;28;656984;-76
2024/02/12 02:16:16;;;;;;;4.03;3.10;;;6.60;99.90;;;;;;4436910;28;656749;-77
2024/02/12 02:19:04;;;;;;;4.03;2.90;;;6.60;99.90;;;;;;4408809;28;656435;-77
2024/02/12 02:21:52;;;;;;;5.30;2.70;;;6.60;99.90;;;;;;4441137;28;656338;-77
2024/02/12 02:24:40;;;;;;;1.70;1.47;;;6.60;99.90;;;;;;4427698;28;656486;-77
2024/02/12 02:27:27;;;;;;;4.00;2.90;;;6.60;99.90;;;;;;4412345;28;656654;-77
2024/02/12 02:30:15;;;;;;;3.23;1.93;;;6.60;99.90;;;;;;4435225;28;657168;-78
2024/02/12 02:33:03;;;;;;;3.50;1.83;;;6.60;99.90;;;;;;4409573;28;657054;-76
2024/02/12 02:35:51;;;;;;;2.40;1.70;;;6.60;99.90;;;;;;4443758;28;656615;-78
2024/02/12 02:38:38;;;;;;;2.40;1.90;;;6.60;99.90;;;;;;4420669;28;655955;-77
2024/02/12 02:41:27;;;;;;;2.22;1.23;;;6.70;99.90;;;;;;4452549;28;658210;-78
2024/02/12 02:44:16;;;;;;;1.73;1.27;;;6.60;99.90;;;;;;4428792;28;658215;-78
2024/02/12 02:47:04;;;;;;;4.73;2.60;;;6.60;99.90;;;;;;4428882;28;657021;-78
2024/02/12 02:49:51;;;;;;;3.37;2.40;;;6.60;99.90;;;;;;4447975;28;657203;-77
2024/02/12 02:52:39;;;;;;;4.63;2.57;;;6.60;99.90;;;;;;4429013;28;656966;-77
2024/02/12 02:55:28;;;;;;;2.73;1.33;;;6.60;99.90;;;;;;4450749;28;656760;-77
2024/02/12 02:58:16;;;;;;;0.87;0.70;;;6.60;99.90;;;;;;4409558;28;657213;-77
2024/02/12 03:01:05;;;;;;;2.83;2.10;;;6.60;99.90;;;;;;4426681;28;656763;-77
2024/02/12 03:03:54;;;;;;;1.70;1.38;;;6.60;99.90;;;;;;4435722;28;657378;-76
2024/02/12 03:06:41;;;;;;;3.63;2.20;;;6.60;99.90;;;;;;4430352;28;656842;-78
2024/02/12 03:09:29;;;;;;;4.10;2.70;;;6.60;99.90;;;;;;4427613;28;656587;-78
2024/02/12 03:12:16;;;;;;;2.67;2.00;;;6.60;99.90;;;;;;4430772;28;657100;-78
2024/02/12 03:15:11;;;;;;;2.67;2.07;;;6.70;99.90;;;;;;4405331;28;656998;-77
2024/02/12 03:17:59;;;;;;;3.13;2.20;;;6.60;99.90;;;;;;4411050;28;656505;-77
2024/02/12 03:20:46;;;;;;;3.03;2.33;;;6.60;99.90;;;;;;4429674;28;658340;-78
2024/02/12 03:23:33;;;;;;;3.27;2.30;;;6.60;99.90;;;;;;4415525;28;656952;-78
2024/02/12 03:26:20;;;;;;;3.17;2.10;;;6.60;99.90;;;;;;4448713;28;658508;-77
2024/02/12 03:29:08;;;;;;;4.27;2.40;;;6.60;99.90;;;;;;4429465;28;656861;-77
2024/02/12 03:31:56;;;;;;;6.60;2.70;;;6.60;99.90;;;;;;4447854;28;657665;-78
2024/02/12 03:34:44;;;;;;;2.43;2.13;;;6.60;99.90;;;;;;4412018;28;656355;-77
2024/02/12 03:37:31;;;;;;;4.23;2.53;;;6.60;99.90;;;;;;4449473;28;657269;-78
2024/02/12 03:40:18;;;;;;;4.50;2.73;;;6.60;99.90;;;;;;4430106;28;656870;-78
2024/02/12 03:43:06;;;;;;;1.47;0.97;;;6.60;99.90;;;;;;4447378;28;657099;-78
2024/02/12 03:45:55;;;;;;;2.43;2.00;;;6.60;99.90;;;;;;4432132;28;657058;-77
2024/02/12 04:01:03;;;;;;;3.90;2.57;;;6.60;99.90;;;;;;4415007;28;656734;-77
2024/02/12 04:03:52;;;;;;;3.47;2.60;;;6.60;99.90;;;;;;4455095;28;657056;-78
2024/02/12 04:06:39;;;;;;;4.53;2.63;;;6.60;99.90;;;;;;4433141;28;657644;-78
2024/02/12 04:09:27;;;;;;;3.83;2.40;;;6.60;99.90;;;;;;4455672;28;656152;-77
2024/02/12 04:12:14;;;;;;;5.60;1.70;;;6.60;99.90;;;;;;4431272;28;656950;-78
2024/02/12 04:15:01;;;;;;;4.80;2.80;;;6.60;99.90;;;;;;4454837;28;656708;-78
2024/02/12 04:17:50;;;;;;;2.70;1.30;;;6.60;99.90;;;;;;4427894;28;656526;-78
2024/02/12 04:20:39;;;;;;;3.92;2.47;;;6.60;99.90;;;;;;4419083;28;657026;-77
2024/02/12 04:23:27;;;;;;;4.20;2.40;;;6.60;99.90;;;;;;4451744;28;657576;-79
2024/02/12 04:26:15;;;;;;;3.00;2.23;;;6.60;99.90;;;;;;4427841;28;657228;-78
2024/02/12 04:29:05;;;;;;;3.30;2.40;;;6.50;99.90;;;;;;4433766;28;656802;-76
2024/02/12 04:31:52;;;;;;;4.77;3.00;;;6.60;99.90;;;;;;4439517;28;657117;-77
2024/02/12 04:34:40;;;;;;;1.53;1.30;;;6.60;99.90;;;;;;4451546;28;657755;-78
2024/02/12 04:37:29;;;;;;;4.77;2.60;;;6.60;99.90;;;;;;4445698;28;656309;-76
2024/02/12 04:40:16;;;;;;;5.23;2.77;;;6.60;99.90;;;;;;4455312;28;656568;-78
2024/02/12 04:43:04;;;;;;;5.60;2.90;;;6.60;99.90;;;;;;4431154;28;657216;-78
2024/02/12 04:45:52;;;;;;;3.70;2.50;;;6.60;99.90;;;;;;4467173;28;656951;-78
2024/02/12 04:48:40;;;;;;;4.10;2.83;;;6.60;99.90;;;;;;4448710;28;657037;-78
2024/02/12 04:51:27;;;;;;;3.20;1.60;;;6.60;99.90;;;;;;4455215;28;656748;-76
2024/02/12 04:54:16;;;;;;;4.13;2.80;;;6.60;99.90;;;;;;4449876;28;657635;-78
2024/02/12 04:57:04;;;;;;;2.50;1.77;;;6.60;99.90;;;;;;4414751;28;656336;-77
2024/02/12 04:59:52;;;;;;;2.97;2.07;;;6.60;99.90;;;;;;4433757;28;657127;-79
2024/02/12 05:02:40;;;;;;;6.43;3.07;;;6.60;99.90;;;;;;4431336;28;657438;-79
2024/02/12 05:05:28;;;;;;;5.53;3.07;;;6.50;99.90;;;;;;4440242;28;656368;-76
2024/02/12 05:08:16;;;;;;;1.97;1.50;;;6.60;99.90;;;;;;4452557;28;657008;-78
2024/02/12 05:11:05;;;;;;;2.57;1.17;;;6.60;99.90;;;;;;4413138;28;657303;-78
2024/02/12 05:13:53;;;;;;;2.70;2.07;;;6.60;99.90;;;;;;4423365;28;656923;-76
2024/02/12 05:16:45;;;;;;;2.83;1.80;;;6.60;99.90;;;;;;4435206;28;656422;-78
2024/02/12 05:22:37;;;;;;;5.90;3.70;;;6.60;99.90;;;;;;4420141;28;656738;-79
2024/02/12 05:25:24;;;;;;;6.57;3.20;;;6.50;99.90;;;;;;4429344;28;657512;-79
2024/02/12 05:28:13;;;;;;;5.33;3.53;;;6.50;99.90;;;;;;4449726;28;656976;-79
2024/02/12 05:31:00;;;;;;;5.07;3.30;;;6.50;99.90;;;;;;4430345;28;656919;-79
2024/02/12 05:33:48;;;;;;;6.78;4.15;;;6.50;99.90;;;;;;4418050;28;656881;-76
2024/02/12 05:36:35;;;;;;;6.07;3.47;;;6.50;99.90;;;;;;4430479;28;657237;-79
2024/02/12 05:39:22;;;;;;;6.30;3.90;;;6.60;99.90;;;;;;4399507;28;656400;-76
2024/02/12 05:42:10;;;;;;;7.67;4.30;;;6.50;99.90;;;;;;4430692;28;656454;-78
2024/02/12 05:44:59;;;;;;;6.90;3.73;;;6.50;99.90;;;;;;4452594;28;656810;-78
2024/02/12 05:47:47;;;;;;;7.10;3.70;;;6.50;99.90;;;;;;4452765;28;657005;-79
2024/02/12 05:50:35;;;;;;;9.87;4.40;;;6.50;99.90;;;;;;4409050;28;657422;-79
2024/02/12 05:53:23;;;;;;;7.33;3.37;;;6.50;99.90;;;;;;4451552;28;656769;-79
2024/02/12 05:56:10;;;;;;;8.43;4.60;;;6.50;99.90;;;;;;4411317;28;657348;-79
2024/02/12 05:58:57;;;;;;;7.17;2.90;;;6.50;99.90;;;;;;4420938;28;656841;-77
2024/02/12 06:01:46;;;;;;;4.80;1.10;;;6.50;99.90;;;;;;4441533;28;657013;-78
2024/02/12 06:04:33;;;;;;;7.73;4.10;;;6.50;99.90;;;;;;4427710;28;656483;-79
2024/02/12 06:07:20;;;;;;;6.77;4.20;;;6.40;99.90;;;;;;4451224;28;657563;-79
2024/02/12 06:10:08;;;;;;;8.60;4.20;;;6.50;99.90;;;;;;4428984;28;657578;-78
2024/02/12 06:12:57;;;;;;;7.13;3.83;;;6.50;99.90;;;;;;4433181;28;657158;-79
2024/02/12 06:15:44;;;;;;;7.33;4.27;;;6.50;99.90;;;;;;4408178;28;657758;-78
2024/02/12 06:18:33;;;;;;;6.57;3.70;;;6.40;99.90;;;;;;4430576;28;656732;-79
2024/02/12 06:21:20;;;;;;;7.80;4.20;;;6.40;99.90;;;;;;4416142;28;657217;-79
2024/02/12 06:24:08;;;;;;;6.20;3.83;;;6.40;99.90;;;;;;4428886;28;656445;-77
2024/02/12 06:26:55;;;;;;;5.75;3.78;;;6.40;99.90;;;;;;4448286;28;656221;-79
2024/02/12 06:29:43;;;;;;;9.10;3.73;;;6.50;99.90;;;;;;4423074;28;656642;-79
2024/02/12 06:32:31;;;;;;;9.87;4.50;;;6.50;99.90;;;;;;4430155;28;657092;-79
2024/02/12 06:35:19;;;;;;;6.83;4.20;;;6.40;99.90;;;;;;4423062;28;657090;-79
2024/02/12 06:38:07;;;;;;;6.37;3.87;;;6.50;99.90;;;;;;4449066;28;657099;-79
2024/02/12 06:40:54;;;;;;;7.43;4.30;;;6.50;99.90;;;;;;4428213;28;656699;-79
2024/02/12 06:43:41;;;;;;;7.13;3.80;;;6.40;99.90;;;;;;4448021;28;657037;-80
2024/02/12 06:46:29;;;;;;;7.17;4.30;;;6.50;99.90;;;;;;4429509;28;656567;-79
2024/02/12 06:49:17;;;;;;;6.37;3.40;;;6.50;99.90;;;;;;4447339;28;656754;-79
2024/02/12 06:52:06;;;;;;;8.17;4.80;;;6.50;99.90;;;;;;4428856;28;656332;-79
2024/02/12 06:54:53;;;;;;;6.80;3.27;;;6.40;99.90;;;;;;4428165;28;657035;-79
2024/02/12 06:57:40;;;;;;;5.33;2.50;;;6.50;99.90;;;;;;4452313;28;656464;-79
2024/02/12 07:00:28;;;;;;;8.67;4.37;;;6.50;99.90;;;;;;4428755;28;656881;-77
2024/02/12 07:03:16;;;;;;;9.27;5.00;;;6.50;99.90;;;;;;4434439;28;656947;-79
2024/02/12 07:06:04;;;;;;;8.17;4.17;;;6.60;99.90;;;;;;4426028;28;656745;-78
2024/02/12 07:08:52;;;;;;;3.17;2.03;;;6.60;99.90;;;;;;4448419;28;656978;-79
2024/02/12 07:11:39;;;;;;;8.63;4.37;;;6.60;99.90;;;;;;4407188;28;657944;-79
2024/02/12 07:14:27;;;;;;;6.57;3.97;;;6.60;99.90;;;;;;4411517;28;656865;-80
2024/02/12 07:17:14;;;;;;;4.80;2.70;;;6.60;99.90;;;;;;4410260;28;656871;-79
2024/02/12 07:20:03;;;;;;;7.20;3.63;;;6.70;99.90;;;;;;4442706;28;656944;-78
2024/02/12 07:22:51;;;;;;;1.10;0.80;;;6.70;99.90;;;;;;4414736;28;656889;-79
2024/02/12 07:25:39;;;;;;;6.80;3.43;;;6.70;99.90;;;;;;4415222;28;656730;-79
2024/02/12 07:28:27;;;;;;;7.60;4.00;;;6.70;99.90;;;;;;4434138;28;656645;-80
2024/02/12 07:31:14;;;;;;;6.90;3.70;;;6.80;99.90;;;;;;4414113;28;657023;-79
2024/02/12 07:34:03;;;;;;;6.67;3.90;;;6.80;99.90;;;;;;4437601;28;656323;-79
2024/02/12 07:36:51;;;;;;;2.13;1.43;;;6.80;99.90;;;;;;4397372;28;657001;-79
2024/02/12 07:39:40;;;;;;;5.07;2.20;;;6.90;99.90;;;;;;4415760;28;656443;-79
2024/02/12 07:42:29;;;;;;;6.77;3.43;;;6.80;99.90;;;;;;4432824;28;656914;-77
2024/02/12 07:45:16;;;;;;;7.00;3.70;;;6.80;99.90;;;;;;4451177;28;656479;-79
2024/02/12 07:48:04;;;;;;;1.63;1.43;;;6.90;99.90;;;;;;4432574;28;656686;-79
2024/02/12 07:50:52;;;;;;;7.47;3.40;;;6.90;99.90;;;;;;4449857;28;656574;-79
2024/02/12 07:53:40;;;;;;;8.87;4.20;;;6.80;99.90;;;;;;4432566;28;656240;-79
2024/02/12 07:56:27;;;;;;;4.97;3.37;;;6.90;99.90;;;;;;4433702;28;656310;-80
2024/02/12 07:59:15;;;;;;;8.90;4.13;;;6.80;99.90;;;;;;4411068;28;657255;-79
2024/02/12 08:02:03;;;;;;;3.00;2.03;;;6.90;99.90;;;;;;4414773;28;656312;-78
2024/02/12 08:04:50;;;;;;;6.77;3.27;;;6.90;99.90;;;;;;4432929;28;656946;-79
2024/02/12 08:07:37;;;;;;;5.17;3.40;;;7.00;99.90;;;;;;4437635;28;657036;-77
2024/02/12 08:10:25;;;;;;;1.67;1.07;;;6.90;99.90;;;;;;4454065;28;656586;-79
2024/02/12 08:13:12;;;;;;;3.93;2.37;;;6.90;99.90;;;;;;4452347;28;656142;-79
2024/02/12 08:16:01;;;;;;;6.90;4.30;;;6.90;99.90;;;;;;4410511;28;657519;-80
2024/02/12 08:18:49;;;;;;;4.50;2.80;;;6.90;99.90;;;;;;4421896;28;657003;-79
2024/02/12 08:21:36;;;;;;;8.03;3.87;;;7.00;99.90;;;;;;4450935;28;658016;-79
2024/02/12 08:24:23;;;;;;;7.23;3.57;;;7.00;99.90;;;;;;4426473;28;656553;-79
2024/02/12 08:27:10;;;;;;;9.40;4.90;;;7.00;99.90;;;;;;4437254;28;656726;-79
2024/02/12 08:29:57;;;;;;;8.53;2.83;;;7.00;99.90;;;;;;4413389;28;656359;-76
2024/02/12 08:32:46;;;;;;;3.77;2.40;;;7.00;99.90;;;;;;4453041;28;657355;-79
2024/02/12 08:35:33;;;;;;;5.80;3.23;;;7.00;99.90;;;;;;4431293;28;656832;-78
2024/02/12 08:38:22;;;;;;;3.23;2.10;;;7.10;99.90;;;;;;4449546;28;657456;-79
2024/02/12 08:41:09;;;;;;;9.03;3.60;;;7.10;99.90;;;;;;4429826;28;656831;-79
2024/02/12 08:43:56;;;;;;;9.17;5.43;;;7.10;99.90;;;;;;4436324;28;656168;-79
2024/02/12 08:46:44;;;;;;;9.10;5.75;;;7.20;99.90;;;;;;4413799;28;657162;-79
2024/02/12 08:49:33;;;;;;;14.17;5.47;;;7.20;99.90;;;;;;4442262;28;656296;-80
2024/02/12 08:52:20;;;;;;;7.73;4.33;;;7.20;99.90;;;;;;4424771;28;657814;-79
2024/02/12 08:55:10;;;;;;;8.95;4.57;;;7.30;99.90;;;;;;4424478;28;656770;-76
2024/02/12 08:57:58;;;;;;;8.90;3.83;;;7.30;99.90;;;;;;4415014;28;656738;-78
2024/02/12 09:00:45;;;;;;;7.47;4.23;;;7.30;99.90;;;;;;4433699;28;657820;-78
2024/02/12 09:03:33;;;;;;;13.67;5.07;;;7.20;99.90;;;;;;4430502;28;656309;-78
2024/02/12 09:06:22;;;;;;;8.53;4.73;;;7.20;99.90;;;;;;4447835;28;658278;-79
2024/02/12 09:09:12;;;;;;;8.97;5.50;;;7.30;99.90;;;;;;4414899;28;657183;-78
2024/02/12 09:12:00;;;;;;;6.40;3.00;;;7.30;99.90;;;;;;4429608;28;657022;-79
2024/02/12 09:14:47;;;;;;;10.40;5.70;;;7.30;99.90;;;;;;4427997;28;656917;-77
2024/02/12 09:17:35;;;;;;;4.60;2.33;;;7.30;99.90;;;;;;4452935;28;658050;-79
2024/02/12 09:20:22;;;;;;;16.13;7.50;;;7.30;99.90;;;;;;4445653;28;657107;-76
2024/02/12 09:23:11;;;;;;;8.57;5.60;;;7.30;99.90;;;;;;4440143;28;658340;-79
2024/02/12 09:25:58;;;;;;;11.30;6.20;;;7.40;99.90;;;;;;4413195;28;656475;-79
2024/02/12 09:28:47;;;;;;;11.97;6.90;;;7.50;99.90;;;;;;4430522;28;658193;-80
2024/02/12 09:31:34;;;;;;;12.47;6.00;;;7.70;99.90;;;;;;4421329;28;658162;-80
2024/02/12 09:34:21;;;;;;;6.80;3.50;;;7.80;99.90;;;;;;4449748;28;657752;-80
2024/02/12 09:37:10;;;;;;;7.10;3.83;;;7.80;1.00;;;;;;4410876;28;656840;-79
2024/02/12 09:40:02;;;;;;;13.03;6.13;;;7.70;99.90;;;;;;4441472;28;655554;-79
2024/02/12 09:42:50;;;;;;;9.43;4.27;;;7.70;99.90;;;;;;4419407;28;658253;-80
2024/02/12 09:45:38;;;;;;;7.10;3.17;;;7.80;99.90;;;;;;4437069;28;655993;-79
2024/02/12 09:48:26;;;;;;;12.07;6.57;;;7.70;99.90;;;;;;4413808;28;656884;-80
2024/02/12 09:51:15;;;;;;;13.50;5.63;;;7.60;1.00;;;;;;4412076;28;658190;-79
2024/02/12 09:54:02;;;;;;;5.53;3.07;;;7.70;1.00;;;;;;4434860;28;657215;-79
2024/02/12 09:56:52;;;;;;;11.00;6.70;;;7.70;99.90;;;;;;4425062;28;656186;-80
2024/02/12 09:59:39;;;;;;;13.23;7.00;;;7.60;1.00;;;;;;4429263;28;657852;-79
2024/02/12 10:02:27;;;;;;;15.40;6.90;;;7.70;1.00;;;;;;4436639;28;657105;-81
2024/02/12 10:05:20;;;;;;;7.50;5.23;;;7.80;1.00;;;;;;4428579;28;656317;-80
2024/02/12 10:08:18;;;;;;;10.23;5.40;;;7.70;99.90;;;;;;4448987;28;655430;-77
2024/02/12 10:11:06;;;;;;;6.77;3.40;;;7.70;99.90;;;;;;4424904;28;658337;-79
2024/02/12 10:13:58;;;;;;;6.53;3.87;;;7.70;99.90;;;;;;4413833;28;657341;-79
2024/02/12 10:16:45;;;;;;;5.10;2.73;;;7.70;1.00;;;;;;4412251;28;657235;-79
2024/02/12 10:19:33;;;;;;;6.60;3.13;;;7.80;99.90;;;;;;4400714;28;655912;-77
2024/02/12 10:22:20;;;;;;;11.00;6.60;;;7.80;99.90;;;;;;4431622;28;657498;-80
2024/02/12 10:25:09;;;;;;;10.13;4.23;;;8.00;99.90;;;;;;4421573;28;657628;-76
2024/02/12 10:27:58;;;;;;;11.93;6.17;;;8.00;99.90;;;;;;4446644;28;657371;-80
2024/02/12 10:30:47;;;;;;;8.13;4.10;;;8.10;1.00;;;;;;4410501;28;658078;-80
2024/02/12 10:33:34;;;;;;;7.77;4.73;;;8.10;99.90;;;;;;4392176;28;655694;-79
2024/02/12 10:36:22;;;;;;;9.37;5.80;;;8.10;1.00;;;;;;4435215;28;656343;-80
2024/02/12 10:39:11;;;;;;;9.37;2.77;;;8.20;99.90;;;;;;4392437;28;656367;-80
2024/02/12 10:42:01;;;;;;;10.23;4.30;;;8.30;95.30;;;;;;4415942;28;656903;-79
2024/02/12 10:44:50;;;;;;;9.90;4.50;;;8.40;1.00;;;;;;4423395;28;658705;-80
2024/02/12 10:47:40;;;;;;;8.43;4.97;;;8.50;1.00;;;;;;4433579;28;655108;-77
2024/02/12 10:50:28;;;;;;;5.23;3.30;;;8.60;1.00;;;;;;4431360;28;655597;-77
2024/02/12 10:53:15;;;;;;;7.30;4.63;;;8.50;1.00;;;;;;4455680;28;655921;-80
2024/02/12 10:56:02;;;;;;;8.17;3.70;;;8.30;1.00;;;;;;4406662;28;655109;-77
2024/02/12 10:58:50;;;;;;;13.60;6.20;;;8.50;1.00;;;;;;4452681;28;656085;-80
2024/02/12 11:01:38;;;;;;;8.53;3.60;;;8.40;99.90;;;;;;4443626;28;656845;-76
2024/02/12 11:04:28;;;;;;;11.03;4.83;;;8.80;99.90;;;;;;4434729;28;658096;-80
2024/02/12 11:07:18;;;;;;;15.53;6.23;;;8.80;99.90;;;;;;4430359;28;657906;-80
2024/02/12 11:10:06;;;;;;;13.20;5.60;;;9.10;99.90;;;;;;4429964;28;657548;-80
2024/02/12 11:12:53;;;;;;;9.87;4.97;;;9.40;99.90;;;;;;4414111;28;657413;-79
2024/02/12 11:15:48;;;;;;;2.17;1.63;;;9.20;99.90;;;;;;4437282;28;657149;-79
2024/02/12 11:18:37;;;;;;;12.30;5.40;;;9.10;99.90;;;;;;4411247;28;656651;-80
2024/02/12 11:21:28;;;;;;;6.30;3.80;;;9.00;99.90;;;;;;4413616;28;658508;-79
2024/02/12 11:24:16;;;;;;;5.55;2.40;;;9.10;99.90;;;;;;4410753;28;657295;-80
2024/02/12 11:27:08;;;;;;;3.47;2.03;;;9.40;99.90;;;;;;4414378;28;657240;-78
2024/02/12 11:29:55;;;;;;;5.83;2.50;;;9.20;99.90;;;;;;4408706;28;657039;-79
2024/02/12 11:32:44;;;;;;;4.33;2.70;;;9.10;99.90;;;;;;4397398;28;657193;-77
2024/02/12 11:35:32;;;;;;;4.30;2.73;;;9.10;99.90;;;;;;4430135;28;657004;-79
2024/02/12 11:38:20;;;;;;;9.87;4.90;;;8.90;99.90;;;;;;4414929;28;657318;-80
2024/02/12 11:41:07;;;;;;;11.23;5.10;;;8.90;99.90;;;;;;4398053;28;656854;-78
2024/02/12 11:43:55;;;;;;;6.50;3.83;;;9.20;99.90;;;;;;4422003;28;658185;-79
2024/02/12 11:46:43;;;;;;;5.27;1.97;;;9.10;99.90;;;;;;4425882;28;656738;-77
2024/02/12 11:49:30;;;;;;;8.10;3.87;;;9.00;99.90;;;;;;4425071;28;656803;-79
2024/02/12 11:52:20;;;;;;;4.47;1.87;;;9.00;99.90;;;;;;4411794;28;656579;-75
2024/02/12 11:55:10;;;;;;;8.17;4.50;;;9.20;99.90;;;;;;4445277;28;656165;-79
2024/02/12 11:57:58;;;;;;;8.70;4.57;;;9.40;99.90;;;;;;4419879;28;656580;-76
2024/02/12 12:00:46;;;;;;;6.67;3.00;;;9.60;99.90;;;;;;4455647;28;657378;-80
2024/02/12 12:03:33;;;;;;;6.53;3.43;;;9.90;99.90;;;;;;4414280;28;657071;-78
2024/02/12 12:06:22;;;;;;;8.50;3.40;;;9.80;99.90;;;;;;4420742;28;656345;-80
2024/02/12 12:09:09;;;;;;;8.10;2.43;;;9.60;99.90;;;;;;4396930;28;657375;-78
2024/02/12 12:11:59;;;;;;;15.43;3.30;;;9.40;99.90;;;;;;4396854;28;657091;-78
2024/02/12 12:14:47;;;;;;;5.97;3.30;;;9.40;99.90;;;;;;4436081;28;657187;-79
2024/02/12 12:17:34;;;;;;;6.70;2.87;;;9.30;99.90;;;;;;4414324;28;657015;-79
2024/02/12 12:20:25;;;;;;;5.80;2.43;;;9.50;99.90;;;;;;4429675;28;656312;-79
2024/02/12 12:23:14;;;;;;;5.80;3.43;;;9.60;99.90;;;;;;4409065;28;656954;-76
2024/02/12 12:26:01;;;;;;;3.97;2.27;;;9.30;99.90;;;;;;4454470;28;657627;-80
2024/02/12 12:28:49;;;;;;;4.73;2.40;;;9.60;99.90;;;;;;4431650;28;656708;-79
2024/02/12 12:31:37;;;;;;;4.40;2.80;;;9.70;99.90;;;;;;4450729;28;656718;-80
2024/02/12 12:34:25;;;;;;;5.93;2.43;;;9.90;99.90;;;;;;4426500;28;657308;-80
2024/02/12 12:37:14;;;;;;;5.87;3.27;;;9.90;99.90;;;;;;4444989;28;655630;-79
2024/02/12 12:40:08;;;;;;;6.17;2.97;;;9.50;99.90;;;;;;4415080;28;656382;-79
2024/02/12 12:42:57;;;;;;;4.93;2.00;;;9.40;99.90;;;;;;4420122;28;657061;-79
2024/02/12 12:45:46;;;;;;;7.80;2.97;;;9.30;1.00;;;;;;4427543;28;657282;-79
2024/02/12 12:48:33;;;;;;;6.27;3.00;;;9.30;1.00;;;;;;4432016;28;655604;-78
2024/02/12 12:51:20;;;;;;;4.03;2.73;;;9.20;1.00;;;;;;4456279;28;656174;-79
2024/02/12 12:54:08;;;;;;;5.70;3.07;;;9.20;1.00;;;;;;4432874;28;655533;-79
2024/02/12 12:56:55;;;;;;;7.87;2.87;;;9.30;1.00;;;;;;4432173;28;656245;-80
2024/02/12 12:59:43;;;;;;;4.35;2.30;;;9.40;1.00;;;;;;4418917;28;655600;-78
2024/02/12 13:02:32;;;;;;;4.50;1.80;;;9.50;1.00;;;;;;4433025;28;656593;-79
2024/02/12 13:05:20;;;;;;;5.20;2.23;;;9.30;1.00;;;;;;4413915;28;656129;-79
2024/02/12 13:08:12;;;;;;;7.27;3.17;;;9.40;1.00;;;;;;4406084;28;656165;-77
2024/02/12 13:11:00;;;;;;;5.88;3.40;;;9.40;1.00;;;;;;4433818;28;656237;-80
2024/02/12 13:13:49;;;;;;;7.60;3.53;;;9.40;99.90;;;;;;4456132;28;654840;-79
2024/02/12 13:16:36;;;;;;;5.73;3.17;;;9.40;28.10;;;;;;4426171;28;657146;-79
2024/02/12 13:19:28;;;;;;;7.13;3.37;;;9.30;99.90;;;;;;4431949;28;657032;-79
2024/02/12 13:22:17;;;;;;;7.57;3.73;;;9.30;72.40;;;;;;4427414;28;656565;-80
2024/02/12 13:25:06;;;;;;;6.40;3.10;;;9.20;99.90;;;;;;4432064;28;657652;-80
2024/02/12 13:27:55;;;;;;;6.30;3.33;;;9.20;1.00;;;;;;4412246;28;656878;-80
2024/02/12 13:30:43;;;;;;;10.00;4.87;;;9.20;1.00;;;;;;4436959;28;655339;-80
2024/02/12 13:33:30;;;;;;;8.07;3.60;;;9.20;53.50;;;;;;4407768;28;657847;-80
2024/02/12 13:36:19;;;;;;;8.03;3.80;;;9.20;29.20;;;;;;4412291;28;656582;-77
2024/02/12 13:39:06;;;;;;;3.97;1.60;;;9.00;69.50;;;;;;4414243;28;657102;-79
2024/02/12 13:41:53;;;;;;;2.83;1.30;;;9.00;99.90;;;;;;4400907;28;656886;-79
2024/02/12 13:44:41;;;;;;;5.97;3.80;;;8.90;1.00;;;;;;4427946;28;656826;-79
2024/02/12 13:47:29;;;;;;;6.53;4.10;;;8.90;1.00;;;;;;4407574;28;655714;-79
2024/02/12 13:50:17;;;;;;;9.00;3.17;;;8.80;1.00;;;;;;4427062;28;656668;-78
2024/02/12 13:53:06;;;;;;;7.63;3.83;;;8.90;1.00;;;;;;4414458;28;656312;-79
2024/02/12 13:55:54;;;;;;;7.57;3.77;;;8.70;99.90;;;;;;4428458;28;655458;-79
2024/02/12 13:58:42;;;;;;;7.17;3.43;;;8.80;99.90;;;;;;4454157;28;656399;-80
2024/02/12 14:01:30;;;;;;;8.10;3.80;;;8.80;1.00;;;;;;4427668;28;657087;-79
2024/02/12 14:04:19;;;;;;;11.53;4.07;;;8.80;1.00;;;;;;4412776;28;655844;-78
2024/02/12 14:07:06;;;;;;;6.80;3.60;;;8.80;44.10;;;;;;4442193;28;657261;-80
2024/02/12 14:09:56;;;;;;;7.27;3.70;;;8.80;99.90;;;;;;4413104;28;656549;-79
2024/02/12 14:12:43;;;;;;;8.97;4.40;;;8.80;1.00;;;;;;4412295;28;656753;-79
2024/02/12 14:15:30;;;;;;;9.13;4.60;;;8.80;1.00;;;;;;4433372;28;656350;-80
2024/02/12 14:18:18;;;;;;;8.70;5.00;;;8.90;99.90;;;;;;4413782;28;655377;-78
2024/02/12 14:21:06;;;;;;;10.13;4.97;;;8.80;99.90;;;;;;4448428;28;656785;-80
2024/02/12 14:23:53;;;;;;;9.15;4.97;;;8.80;1.00;;;;;;4427811;28;658091;-80
2024/02/12 14:26:45;;;;;;;13.43;4.90;;;8.80;1.00;;;;;;4453279;28;655339;-79
2024/02/12 14:29:33;;;;;;;10.20;4.97;;;8.90;99.90;;;;;;4429034;28;656601;-77
2024/02/12 14:32:23;;;;;;;12.43;5.67;;;8.80;99.90;;;;;;4431136;28;658282;-80
2024/02/12 14:35:12;;;;;;;10.40;5.13;;;8.70;99.90;;;;;;4413679;28;658557;-79
2024/02/12 14:38:01;;;;;;;12.67;7.07;;;8.60;99.90;;;;;;4429297;28;658419;-79
2024/02/12 14:40:49;;;;;;;17.93;7.13;;;8.60;99.90;;;;;;4428755;28;657890;-79
2024/02/12 14:43:37;;;;;;;11.47;6.20;;;8.60;99.90;;;;;;4431531;28;657772;-80
2024/02/12 14:46:25;;;;;;;11.03;5.37;;;8.50;99.90;;;;;;4407848;28;657789;-79
2024/02/12 14:49:13;;;;;;;14.05;4.18;;;8.50;99.90;;;;;;4412830;28;657415;-76
2024/02/12 14:52:05;;;;;;;9.93;5.83;;;8.50;99.90;;;;;;4447877;28;658729;-79